sensor_id;sensor_type;location;lat;lon;timestamp;pressure;altitude;pressure_sealevel;temperature;humidity
21956;BME280;11142;49.930;8.606;2024-02-15T00:00:07;100238.19;;;11.77;100.00
21956;BME280;11142;49.930;8.606;2024-02-15T00:02:35;100229.56;;;11.77;100.00
21956;BME280;11142;49.930;8.606;2024-02-15T00:05:06;100221.25;;;11.84;100.00
21956;BME280;11142;49.930;8.606;2024-02-15T00:07:35;100231.16;;;11.65;100.00
21956;BME280;11142;49.930;8.606;2024-02-15T00:10:04;100229.88;;;11.72;100.00
21956;BME280;11142;49.930;8.606;2024-02-15T00:12:34;100223.28;;;11.66;100.00
21956;BME280;11142;49.930;8.606;2024-02-15T00:15:03;100230.88;;;11.69;100.00
21956;BME280;11142;49.930;8.606;2024-02-15T00:17:33;100224.56;;;11.73;100.00
21956;BME280;11142;49.930;8.606;2024-02-15T00:20:03;100225.00;;;11.80;100.00
21956;BME280;11142;49.930;8.606;2024-02-15T00:22:38;100225.41;;;11.87;100.00
21956;BME280;11142;49.930;8.606;2024-02-15T00:25:08;100212.22;;;11.90;100.00
21956;BME280;11142;49.930;8.606;2024-02-15T00:27:38;100218.16;;;11.92;100.00
21956;BME280;11142;49.930;8.606;2024-02-15T00:30:07;100226.28;;;12.00;100.00
21956;BME280;11142;49.930;8.606;2024-02-15T00:32:36;100236.06;;;12.09;100.00
21956;BME280;11142;49.930;8.606;2024-02-15T00:35:05;100235.63;;;12.15;100.00
21956;BME280;11142;49.930;8.606;2024-02-15T00:37:40;100235.44;;;12.18;100.00
21956;BME280;11142;49.930;8.606;2024-02-15T00:40:08;100241.69;;;12.28;100.00
21956;BME280;11142;49.930;8.606;2024-02-15T00:42:37;100242.81;;;12.24;100.00
21956;BME280;11142;49.930;8.606;2024-02-15T00:45:06;100252.91;;;12.16;100.00
21956;BME280;11142;49.930;8.606;2024-02-15T00:47:36;100253.22;;;12.24;100.00
21956;BME280;11142;49.930;8.606;2024-02-15T00:50:06;100256.84;;;11.96;100.00
21956;BME280;11142;49.930;8.606;2024-02-15T00:52:34;100244.25;;;11.90;100.00
21956;BME280;11142;49.930;8.606;2024-02-15T00:55:04;100250.22;;;11.92;100.00
21956;BME280;11142;49.930;8.606;2024-02-15T00:57:32;100253.34;;;12.10;100.00
21956;BME280;11142;49.930;8.606;2024-02-15T01:00:02;100262.06;;;12.09;100.00
21956;BME280;11142;49.930;8.606;2024-02-15T01:02:33;100252.41;;;12.11;100.00
21956;BME280;11142;49.930;8.606;2024-02-15T01:05:02;100252.91;;;12.16;100.00
21956;BME280;11142;49.930;8.606;2024-02-15T01:07:31;100257.00;;;12.20;100.00
21956;BME280;11142;49.930;8.606;2024-02-15T01:09:59;100256.25;;;12.18;100.00
21956;BME280;11142;49.930;8.606;2024-02-15T01:12:28;100250.31;;;12.29;100.00
21956;BME280;11142;49.930;8.606;2024-02-15T01:14:56;100260.44;;;12.20;100.00
21956;BME280;11142;49.930;8.606;2024-02-15T01:17:25;100258.63;;;12.21;100.00
21956;BME280;11142;49.930;8.606;2024-02-15T01:19:53;100258.13;;;12.16;100.00
21956;BME280;11142;49.930;8.606;2024-02-15T01:22:22;100255.66;;;12.14;100.00
21956;BME280;11142;49.930;8.606;2024-02-15T01:24:52;100256.97;;;12.07;100.00
21956;BME280;11142;49.930;8.606;2024-02-15T01:27:20;100250.00;;;12.08;100.00
21956;BME280;11142;49.930;8.606;2024-02-15T01:29:50;100247.50;;;12.19;100.00
21956;BME280;11142;49.930;8.606;2024-02-15T01:32:19;100250.44;;;12.27;100.00
21956;BME280;11142;49.930;8.606;2024-02-15T01:34:50;100255.53;;;12.41;100.00
21956;BME280;11142;49.930;8.606;2024-02-15T01:37:21;100268.03;;;12.36;100.00
21956;BME280;11142;49.930;8.606;2024-02-15T01:39:50;100263.84;;;12.46;100.00
21956;BME280;11142;49.930;8.606;2024-02-15T01:42:21;100266.66;;;12.43;100.00
21956;BME280;11142;49.930;8.606;2024-02-15T01:44:51;100271.47;;;12.49;100.00
21956;BME280;11142;49.930;8.606;2024-02-15T01:47:20;100262.00;;;12.36;100.00
21956;BME280;11142;49.930;8.606;2024-02-15T01:49:50;100262.19;;;12.33;100.00
21956;BME280;11142;49.930;8.606;2024-02-15T01:52:21;100263.03;;;12.33;100.00
21956;BME280;11142;49.930;8.606;2024-02-15T01:54:51;100262.28;;;12.31;100.00
21956;BME280;11142;49.930;8.606;2024-02-15T01:57:20;100264.38;;;12.26;100.00
21956;BME280;11142;49.930;8.606;2024-02-15T01:59:51;100248.03;;;12.24;100.00
21956;BME280;11142;49.930;8.606;2024-02-15T03:24:08;100320.03;;;13.24;100.00
21956;BME280;11142;49.930;8.606;2024-02-15T03:26:36;100310.97;;;13.17;100.00
21956;BME280;11142;49.930;8.606;2024-02-15T03:29:05;100314.28;;;13.07;100.00
21956;BME280;11142;49.930;8.606;2024-02-15T03:31:35;100311.19;;;13.02;100.00
21956;BME280;11142;49.930;8.606;2024-02-15T03:34:03;100302.06;;;12.84;100.00
21956;BME280;11142;49.930;8.606;2024-02-15T03:36:33;100293.06;;;12.88;100.00
21956;BME280;11142;49.930;8.606;2024-02-15T03:39:02;100287.13;;;12.98;100.00
21956;BME280;11142;49.930;8.606;2024-02-15T03:41:34;100307.03;;;13.12;100.00
21956;BME280;11142;49.930;8.606;2024-02-15T03:44:02;100312.53;;;13.07;100.00
21956;BME280;11142;49.930;8.606;2024-02-15T03:46:31;100313.38;;;12.95;100.00
21956;BME280;11142;49.930;8.606;2024-02-15T03:48:59;100310.19;;;12.79;100.00
21956;BME280;11142;49.930;8.606;2024-02-15T03:51:28;100313.69;;;12.91;100.00
21956;BME280;11142;49.930;8.606;2024-02-15T03:53:56;100311.41;;;12.99;100.00
21956;BME280;11142;49.930;8.606;2024-02-15T03:56:25;100308.69;;;12.88;100.00
21956;BME280;11142;49.930;8.606;2024-02-15T03:58:55;100319.44;;;12.96;100.00
21956;BME280;11142;49.930;8.606;2024-02-15T04:01:26;100313.09;;;12.87;100.00
21956;BME280;11142;49.930;8.606;2024-02-15T04:03:54;100314.53;;;12.78;100.00
21956;BME280;11142;49.930;8.606;2024-02-15T04:06:22;100314.97;;;12.72;100.00
21956;BME280;11142;49.930;8.606;2024-02-15T04:08:58;100311.94;;;12.78;100.00
21956;BME280;11142;49.930;8.606;2024-02-15T04:11:28;100310.50;;;12.74;100.00
21956;BME280;11142;49.930;8.606;2024-02-15T04:13:59;100304.34;;;12.75;100.00
21956;BME280;11142;49.930;8.606;2024-02-15T04:16:27;100308.28;;;12.68;100.00
21956;BME280;11142;49.930;8.606;2024-02-15T04:18:57;100296.88;;;12.58;100.00
21956;BME280;11142;49.930;8.606;2024-02-15T04:21:26;100294.56;;;12.41;100.00
21956;BME280;11142;49.930;8.606;2024-02-15T04:23:54;100286.75;;;12.41;100.00
21956;BME280;11142;49.930;8.606;2024-02-15T04:26:22;100284.28;;;12.40;100.00
21956;BME280;11142;49.930;8.606;2024-02-15T04:28:53;100291.03;;;12.55;100.00
21956;BME280;11142;49.930;8.606;2024-02-15T04:31:26;100288.72;;;12.50;100.00
21956;BME280;11142;49.930;8.606;2024-02-15T04:33:54;100291.97;;;12.41;100.00
21956;BME280;11142;49.930;8.606;2024-02-15T04:36:22;100287.91;;;12.50;100.00
21956;BME280;11142;49.930;8.606;2024-02-15T04:38:52;100293.94;;;12.63;100.00
21956;BME280;11142;49.930;8.606;2024-02-15T04:41:20;100302.47;;;12.77;100.00
21956;BME280;11142;49.930;8.606;2024-02-15T04:43:50;100305.97;;;13.02;100.00
21956;BME280;11142;49.930;8.606;2024-02-15T04:46:19;100321.00;;;13.11;100.00
21956;BME280;11142;49.930;8.606;2024-02-15T04:48:50;100321.41;;;13.17;100.00
21956;BME280;11142;49.930;8.606;2024-02-15T04:51:18;100325.91;;;13.15;100.00
21956;BME280;11142;49.930;8.606;2024-02-15T04:53:47;100320.47;;;13.06;100.00
21956;BME280;11142;49.930;8.606;2024-02-15T04:56:16;100319.41;;;13.21;100.00
21956;BME280;11142;49.930;8.606;2024-02-15T04:58:44;100317.53;;;13.23;100.00
21956;BME280;11142;49.930;8.606;2024-02-15T05:22:37;100321.44;;;13.41;100.00
21956;BME280;11142;49.930;8.606;2024-02-15T05:25:08;100329.53;;;13.49;100.00
21956;BME280;11142;49.930;8.606;2024-02-15T05:27:39;100332.81;;;13.40;100.00
21956;BME280;11142;49.930;8.606;2024-02-15T05:30:10;100332.09;;;13.38;100.00
21956;BME280;11142;49.930;8.606;2024-02-15T05:32:39;100333.88;;;13.38;100.00
21956;BME280;11142;49.930;8.606;2024-02-15T05:41:03;100317.09;;;13.29;100.00
21956;BME280;11142;49.930;8.606;2024-02-15T05:43:35;100310.66;;;13.22;100.00
21956;BME280;11142;49.930;8.606;2024-02-15T05:46:04;100303.88;;;13.07;100.00
21956;BME280;11142;49.930;8.606;2024-02-15T05:48:33;100289.06;;;13.07;100.00
21956;BME280;11142;49.930;8.606;2024-02-15T05:51:04;100285.13;;;13.02;100.00
21956;BME280;11142;49.930;8.606;2024-02-15T05:53:34;100286.41;;;13.09;100.00
21956;BME280;11142;49.930;8.606;2024-02-15T05:56:06;100294.84;;;13.12;100.00
21956;BME280;11142;49.930;8.606;2024-02-15T05:58:35;100294.41;;;13.06;100.00
21956;BME280;11142;49.930;8.606;2024-02-15T06:01:04;100293.25;;;12.97;100.00
21956;BME280;11142;49.930;8.606;2024-02-15T06:03:34;100288.19;;;13.08;100.00
21956;BME280;11142;49.930;8.606;2024-02-15T06:06:05;100301.38;;;13.18;100.00
21956;BME280;11142;49.930;8.606;2024-02-15T06:08:34;100304.72;;;13.20;100.00
21956;BME280;11142;49.930;8.606;2024-02-15T06:11:05;100309.47;;;13.26;100.00
21956;BME280;11142;49.930;8.606;2024-02-15T06:22:42;100327.41;;;13.30;100.00
21956;BME280;11142;49.930;8.606;2024-02-15T06:25:11;100330.13;;;13.29;100.00
21956;BME280;11142;49.930;8.606;2024-02-15T06:27:41;100323.75;;;13.33;100.00
21956;BME280;11142;49.930;8.606;2024-02-15T06:30:10;100325.25;;;13.48;100.00
21956;BME280;11142;49.930;8.606;2024-02-15T06:32:57;100338.66;;;13.44;100.00
21956;BME280;11142;49.930;8.606;2024-02-15T06:35:42;100331.03;;;13.41;100.00
21956;BME280;11142;49.930;8.606;2024-02-15T06:38:28;100331.53;;;13.46;100.00
21956;BME280;11142;49.930;8.606;2024-02-15T06:41:14;100334.09;;;13.35;100.00
21956;BME280;11142;49.930;8.606;2024-02-15T06:43:43;100334.31;;;13.32;100.00
21956;BME280;11142;49.930;8.606;2024-02-15T06:46:11;100326.72;;;13.16;100.00
21956;BME280;11142;49.930;8.606;2024-02-15T06:48:42;100321.94;;;13.10;100.00
21956;BME280;11142;49.930;8.606;2024-02-15T06:51:12;100319.84;;;13.02;100.00
21956;BME280;11142;49.930;8.606;2024-02-15T06:53:42;100323.16;;;13.04;100.00
21956;BME280;11142;49.930;8.606;2024-02-15T06:56:11;100315.53;;;13.26;100.00
21956;BME280;11142;49.930;8.606;2024-02-15T06:58:41;100325.91;;;13.39;100.00
21956;BME280;11142;49.930;8.606;2024-02-15T07:01:10;100332.47;;;13.45;100.00
21956;BME280;11142;49.930;8.606;2024-02-15T07:03:40;100327.16;;;13.46;100.00
21956;BME280;11142;49.930;8.606;2024-02-15T07:06:11;100332.94;;;13.62;100.00
21956;BME280;11142;49.930;8.606;2024-02-15T07:08:40;100341.81;;;13.83;100.00
21956;BME280;11142;49.930;8.606;2024-02-15T07:11:09;100343.53;;;13.96;100.00
21956;BME280;11142;49.930;8.606;2024-02-15T07:13:37;100346.06;;;14.08;100.00
21956;BME280;11142;49.930;8.606;2024-02-15T07:16:07;100356.19;;;14.24;100.00
21956;BME280;11142;49.930;8.606;2024-02-15T07:18:37;100356.88;;;14.15;100.00
21956;BME280;11142;49.930;8.606;2024-02-15T07:21:06;100357.56;;;14.06;100.00
21956;BME280;11142;49.930;8.606;2024-02-15T07:23:38;100361.13;;;14.05;100.00
21956;BME280;11142;49.930;8.606;2024-02-15T07:26:06;100363.78;;;14.16;100.00
21956;BME280;11142;49.930;8.606;2024-02-15T07:28:34;100367.16;;;14.29;100.00
21956;BME280;11142;49.930;8.606;2024-02-15T07:31:03;100368.94;;;14.28;100.00
21956;BME280;11142;49.930;8.606;2024-02-15T07:33:32;100374.56;;;14.46;100.00
21956;BME280;11142;49.930;8.606;2024-02-15T07:36:05;100370.19;;;14.47;100.00
21956;BME280;11142;49.930;8.606;2024-02-15T07:38:33;100376.75;;;14.52;100.00
21956;BME280;11142;49.930;8.606;2024-02-15T07:41:04;100378.22;;;14.78;100.00
21956;BME280;11142;49.930;8.606;2024-02-15T07:43:32;100382.97;;;14.84;100.00
21956;BME280;11142;49.930;8.606;2024-02-15T07:46:01;100372.28;;;14.76;100.00
21956;BME280;11142;49.930;8.606;2024-02-15T07:48:31;100380.31;;;14.62;100.00
21956;BME280;11142;49.930;8.606;2024-02-15T07:50:59;100381.16;;;14.63;100.00
21956;BME280;11142;49.930;8.606;2024-02-15T07:53:29;100374.84;;;14.54;100.00
21956;BME280;11142;49.930;8.606;2024-02-15T07:55:58;100374.16;;;14.63;100.00
21956;BME280;11142;49.930;8.606;2024-02-15T07:58:26;100377.69;;;14.62;100.00
21956;BME280;11142;49.930;8.606;2024-02-15T08:00:55;100383.38;;;14.56;100.00
21956;BME280;11142;49.930;8.606;2024-02-15T08:03:25;100373.78;;;14.46;100.00
21956;BME280;11142;49.930;8.606;2024-02-15T08:05:56;100377.00;;;14.71;100.00
21956;BME280;11142;49.930;8.606;2024-02-15T08:08:24;100388.19;;;14.84;100.00
21956;BME280;11142;49.930;8.606;2024-02-15T08:10:54;100388.94;;;14.86;100.00
21956;BME280;11142;49.930;8.606;2024-02-15T08:13:23;100393.41;;;14.84;100.00
21956;BME280;11142;49.930;8.606;2024-02-15T08:15:56;100395.25;;;15.06;100.00
21956;BME280;11142;49.930;8.606;2024-02-15T08:18:25;100408.19;;;14.97;100.00
21956;BME280;11142;49.930;8.606;2024-02-15T08:20:54;100404.84;;;15.17;100.00
21956;BME280;11142;49.930;8.606;2024-02-15T08:23:24;100402.25;;;15.06;100.00
21956;BME280;11142;49.930;8.606;2024-02-15T08:25:55;100405.69;;;14.84;100.00
21956;BME280;11142;49.930;8.606;2024-02-15T08:28:24;100397.69;;;14.85;100.00
21956;BME280;11142;49.930;8.606;2024-02-15T08:30:55;100406.72;;;14.81;100.00
21956;BME280;11142;49.930;8.606;2024-02-15T08:33:24;100397.38;;;14.90;100.00
21956;BME280;11142;49.930;8.606;2024-02-15T08:35:56;100399.03;;;15.13;100.00
21956;BME280;11142;49.930;8.606;2024-02-15T08:38:24;100399.16;;;15.23;100.00
21956;BME280;11142;49.930;8.606;2024-02-15T08:40:52;100396.31;;;15.15;100.00
21956;BME280;11142;49.930;8.606;2024-02-15T08:43:23;100392.97;;;15.24;100.00
21956;BME280;11142;49.930;8.606;2024-02-15T08:45:51;100394.91;;;15.22;100.00
21956;BME280;11142;49.930;8.606;2024-02-15T08:48:20;100394.28;;;15.07;100.00
21956;BME280;11142;49.930;8.606;2024-02-15T08:50:49;100399.16;;;15.34;100.00
21956;BME280;11142;49.930;8.606;2024-02-15T08:53:19;100400.94;;;15.22;100.00
21956;BME280;11142;49.930;8.606;2024-02-15T08:55:48;100393.09;;;15.33;100.00
21956;BME280;11142;49.930;8.606;2024-02-15T08:58:16;100397.03;;;15.28;100.00
21956;BME280;11142;49.930;8.606;2024-02-15T09:00:46;100404.16;;;15.48;100.00
21956;BME280;11142;49.930;8.606;2024-02-15T09:03:15;100403.22;;;15.49;100.00
21956;BME280;11142;49.930;8.606;2024-02-15T09:05:46;100402.72;;;15.44;100.00
21956;BME280;11142;49.930;8.606;2024-02-15T09:08:15;100403.09;;;15.51;100.00
21956;BME280;11142;49.930;8.606;2024-02-15T09:10:49;100408.91;;;15.65;100.00
21956;BME280;11142;49.930;8.606;2024-02-15T09:13:19;100405.75;;;15.93;100.00
21956;BME280;11142;49.930;8.606;2024-02-15T09:15:49;100412.81;;;15.71;100.00
21956;BME280;11142;49.930;8.606;2024-02-15T09:18:18;100410.13;;;16.04;100.00
21956;BME280;11142;49.930;8.606;2024-02-15T09:20:50;100405.28;;;15.88;100.00
21956;BME280;11142;49.930;8.606;2024-02-15T09:23:23;100402.22;;;16.15;100.00
21956;BME280;11142;49.930;8.606;2024-02-15T09:25:51;100404.69;;;16.48;100.00
21956;BME280;11142;49.930;8.606;2024-02-15T09:28:19;100413.38;;;16.49;100.00
21956;BME280;11142;49.930;8.606;2024-02-15T09:30:51;100407.16;;;16.61;100.00
21956;BME280;11142;49.930;8.606;2024-02-15T09:33:19;100403.09;;;16.98;100.00
21956;BME280;11142;49.930;8.606;2024-02-15T09:35:48;100399.59;;;17.19;100.00
21956;BME280;11142;49.930;8.606;2024-02-15T09:38:17;100408.16;;;17.51;100.00
21956;BME280;11142;49.930;8.606;2024-02-15T09:40:48;100406.59;;;17.69;100.00
21956;BME280;11142;49.930;8.606;2024-02-15T09:43:20;100410.16;;;17.59;100.00
21956;BME280;11142;49.930;8.606;2024-02-15T09:45:48;100407.88;;;17.54;100.00
21956;BME280;11142;49.930;8.606;2024-02-15T09:48:18;100397.88;;;17.69;100.00
21956;BME280;11142;49.930;8.606;2024-02-15T09:50:53;100403.81;;;17.71;100.00
21956;BME280;11142;49.930;8.606;2024-02-15T09:53:23;100401.06;;;17.72;100.00
21956;BME280;11142;49.930;8.606;2024-02-15T09:55:53;100398.59;;;17.80;100.00
21956;BME280;11142;49.930;8.606;2024-02-15T09:58:22;100402.75;;;18.02;100.00
21956;BME280;11142;49.930;8.606;2024-02-15T10:00:51;100399.56;;;17.98;100.00
21956;BME280;11142;49.930;8.606;2024-02-15T10:03:22;100399.56;;;17.89;100.00
21956;BME280;11142;49.930;8.606;2024-02-15T10:05:53;100402.94;;;18.20;100.00
21956;BME280;11142;49.930;8.606;2024-02-15T10:08:21;100415.06;;;18.69;100.00
21956;BME280;11142;49.930;8.606;2024-02-15T10:11:05;100412.13;;;19.37;100.00
21956;BME280;11142;49.930;8.606;2024-02-15T10:13:37;100407.41;;;20.13;95.94
21956;BME280;11142;49.930;8.606;2024-02-15T10:16:15;100403.78;;;20.49;92.22
21956;BME280;11142;49.930;8.606;2024-02-15T10:18:47;100402.88;;;21.10;90.73
21956;BME280;11142;49.930;8.606;2024-02-15T10:21:25;100399.81;;;22.06;83.28
21956;BME280;11142;49.930;8.606;2024-02-15T10:24:04;100400.47;;;22.16;81.89
21956;BME280;11142;49.930;8.606;2024-02-15T10:26:35;100405.44;;;22.19;80.54
21956;BME280;11142;49.930;8.606;2024-02-15T10:29:08;100397.00;;;22.32;80.46
21956;BME280;11142;49.930;8.606;2024-02-15T10:31:39;100396.00;;;22.57;76.24
21956;BME280;11142;49.930;8.606;2024-02-15T10:34:14;100392.50;;;22.65;76.37
21956;BME280;11142;49.930;8.606;2024-02-15T10:36:42;100397.25;;;23.10;73.56
21956;BME280;11142;49.930;8.606;2024-02-15T10:39:11;100401.22;;;24.22;71.44
21956;BME280;11142;49.930;8.606;2024-02-15T10:41:45;100385.38;;;25.18;65.14
21956;BME280;11142;49.930;8.606;2024-02-15T10:44:16;100392.69;;;24.50;65.69
21956;BME280;11142;49.930;8.606;2024-02-15T10:46:46;100395.41;;;24.79;64.66
21956;BME280;11142;49.930;8.606;2024-02-15T10:49:20;100393.78;;;24.93;62.18
21956;BME280;11142;49.930;8.606;2024-02-15T10:51:51;100383.41;;;25.56;61.64
21956;BME280;11142;49.930;8.606;2024-02-15T10:54:26;100384.66;;;26.81;60.67
21956;BME280;11142;49.930;8.606;2024-02-15T10:57:03;100384.69;;;26.60;58.36
21956;BME280;11142;49.930;8.606;2024-02-15T10:59:34;100383.34;;;26.77;56.13
21956;BME280;11142;49.930;8.606;2024-02-15T11:02:25;100373.91;;;27.36;55.86
21956;BME280;11142;49.930;8.606;2024-02-15T11:05:01;100367.28;;;27.26;54.54
21956;BME280;11142;49.930;8.606;2024-02-15T11:07:31;100371.78;;;27.25;54.55
21956;BME280;11142;49.930;8.606;2024-02-15T11:10:00;100365.63;;;26.14;56.60
21956;BME280;11142;49.930;8.606;2024-02-15T11:12:32;100367.59;;;25.84;57.70
21956;BME280;11142;49.930;8.606;2024-02-15T11:15:00;100367.94;;;25.60;57.36
21956;BME280;11142;49.930;8.606;2024-02-15T11:17:45;100368.47;;;25.41;59.41
21956;BME280;11142;49.930;8.606;2024-02-15T11:20:47;100345.78;;;25.53;58.34
21956;BME280;11142;49.930;8.606;2024-02-15T11:23:26;100343.72;;;24.52;59.82
21956;BME280;11142;49.930;8.606;2024-02-15T11:25:58;100338.66;;;23.13;62.30
21956;BME280;11142;49.930;8.606;2024-02-15T11:28:38;100329.06;;;22.24;67.68
21956;BME280;11142;49.930;8.606;2024-02-15T11:31:10;100325.56;;;21.84;72.61
21956;BME280;11142;49.930;8.606;2024-02-15T11:34:41;100324.09;;;22.46;71.08
21956;BME280;11142;49.930;8.606;2024-02-15T11:37:50;100324.19;;;22.93;67.34
21956;BME280;11142;49.930;8.606;2024-02-15T11:40:21;100318.72;;;23.64;64.75
21956;BME280;11142;49.930;8.606;2024-02-15T11:42:57;100316.63;;;23.20;65.05
21956;BME280;11142;49.930;8.606;2024-02-15T11:45:28;100315.03;;;23.03;67.50
21956;BME280;11142;49.930;8.606;2024-02-15T11:48:07;100320.97;;;23.52;65.96
21956;BME280;11142;49.930;8.606;2024-02-15T11:50:39;100319.00;;;24.22;62.56
21956;BME280;11142;49.930;8.606;2024-02-15T11:53:10;100315.75;;;25.23;59.00
21956;BME280;11142;49.930;8.606;2024-02-15T11:55:40;100308.06;;;25.13;57.65
21956;BME280;11142;49.930;8.606;2024-02-15T11:58:09;100311.47;;;25.07;59.12
21956;BME280;11142;49.930;8.606;2024-02-15T12:00:49;100308.34;;;24.60;61.28
21956;BME280;11142;49.930;8.606;2024-02-15T12:03:52;100304.94;;;25.10;59.76
21956;BME280;11142;49.930;8.606;2024-02-15T12:06:38;100293.44;;;25.74;57.91
21956;BME280;11142;49.930;8.606;2024-02-15T12:09:25;100297.53;;;25.98;58.56
21956;BME280;11142;49.930;8.606;2024-02-15T12:12:10;100285.75;;;26.28;56.30
21956;BME280;11142;49.930;8.606;2024-02-15T12:14:59;100275.63;;;25.96;54.81
21956;BME280;11142;49.930;8.606;2024-02-15T12:17:45;100281.16;;;25.37;56.21
21956;BME280;11142;49.930;8.606;2024-02-15T12:20:32;100264.28;;;25.09;56.10
21956;BME280;11142;49.930;8.606;2024-02-15T12:23:01;100271.66;;;25.28;56.48
21956;BME280;11142;49.930;8.606;2024-02-15T12:25:31;100259.38;;;25.63;55.00
21956;BME280;11142;49.930;8.606;2024-02-15T12:28:00;100259.63;;;25.89;54.17
21956;BME280;11142;49.930;8.606;2024-02-15T12:30:33;100259.56;;;26.11;54.63
21956;BME280;11142;49.930;8.606;2024-02-15T12:33:11;100260.75;;;25.59;55.53
21956;BME280;11142;49.930;8.606;2024-02-15T12:35:49;100251.66;;;25.11;56.96
21956;BME280;11142;49.930;8.606;2024-02-15T12:38:18;100250.47;;;25.71;54.60
21956;BME280;11142;49.930;8.606;2024-02-15T12:40:47;100256.56;;;26.76;54.55
21956;BME280;11142;49.930;8.606;2024-02-15T12:43:15;100258.44;;;27.36;51.49
21956;BME280;11142;49.930;8.606;2024-02-15T12:45:43;100261.44;;;28.00;48.54
21956;BME280;11142;49.930;8.606;2024-02-15T12:48:13;100246.91;;;27.16;50.40
21956;BME280;11142;49.930;8.606;2024-02-15T12:50:42;100242.78;;;26.10;52.55
21956;BME280;11142;49.930;8.606;2024-02-15T12:53:10;100241.28;;;25.37;52.23
21956;BME280;11142;49.930;8.606;2024-02-15T12:55:39;100245.44;;;25.82;53.31
21956;BME280;11142;49.930;8.606;2024-02-15T12:58:14;100241.28;;;26.01;53.24
21956;BME280;11142;49.930;8.606;2024-02-15T13:00:43;100239.16;;;26.46;53.61
21956;BME280;11142;49.930;8.606;2024-02-15T13:03:11;100233.28;;;26.50;48.76
21956;BME280;11142;49.930;8.606;2024-02-15T13:05:42;100231.75;;;26.13;51.45
21956;BME280;11142;49.930;8.606;2024-02-15T13:08:11;100230.56;;;25.46;53.55
21956;BME280;11142;49.930;8.606;2024-02-15T13:10:41;100232.03;;;25.12;54.77
21956;BME280;11142;49.930;8.606;2024-02-15T13:13:12;100225.66;;;25.28;53.73
21956;BME280;11142;49.930;8.606;2024-02-15T13:15:42;100229.09;;;24.86;55.67
21956;BME280;11142;49.930;8.606;2024-02-15T13:18:11;100219.59;;;23.27;56.58
21956;BME280;11142;49.930;8.606;2024-02-15T13:20:41;100211.25;;;22.14;64.49
21956;BME280;11142;49.930;8.606;2024-02-15T13:23:10;100214.16;;;22.51;66.30
21956;BME280;11142;49.930;8.606;2024-02-15T13:25:46;100201.72;;;22.52;64.74
21956;BME280;11142;49.930;8.606;2024-02-15T13:28:16;100208.72;;;22.45;66.97
21956;BME280;11142;49.930;8.606;2024-02-15T13:30:46;100207.34;;;22.49;64.23
21956;BME280;11142;49.930;8.606;2024-02-15T13:33:16;100209.69;;;22.44;66.85
21956;BME280;11142;49.930;8.606;2024-02-15T13:35:45;100200.56;;;22.70;67.20
21956;BME280;11142;49.930;8.606;2024-02-15T13:38:13;100192.28;;;22.73;64.98
21956;BME280;11142;49.930;8.606;2024-02-15T13:40:51;100187.00;;;21.30;66.92
21956;BME280;11142;49.930;8.606;2024-02-15T13:43:29;100182.19;;;20.07;74.20
21956;BME280;11142;49.930;8.606;2024-02-15T13:45:59;100190.16;;;19.90;78.54
21956;BME280;11142;49.930;8.606;2024-02-15T13:48:31;100185.41;;;20.19;79.41
21956;BME280;11142;49.930;8.606;2024-02-15T13:51:03;100177.53;;;20.53;76.97
21956;BME280;11142;49.930;8.606;2024-02-15T13:53:36;100187.34;;;20.43;76.31
21956;BME280;11142;49.930;8.606;2024-02-15T13:56:04;100178.00;;;20.23;79.21
21956;BME280;11142;49.930;8.606;2024-02-15T13:58:34;100187.44;;;19.56;79.41
21956;BME280;11142;49.930;8.606;2024-02-15T14:01:03;100173.66;;;19.62;79.83
21956;BME280;11142;49.930;8.606;2024-02-15T14:03:31;100172.22;;;20.19;80.06
21956;BME280;11142;49.930;8.606;2024-02-15T14:06:01;100166.03;;;19.77;80.16
21956;BME280;11142;49.930;8.606;2024-02-15T14:08:33;100168.94;;;19.48;82.94
21956;BME280;11142;49.930;8.606;2024-02-15T14:11:02;100159.38;;;19.90;81.14
21956;BME280;11142;49.930;8.606;2024-02-15T14:13:33;100150.25;;;20.10;81.31
21956;BME280;11142;49.930;8.606;2024-02-15T14:16:02;100158.84;;;20.38;79.27
21956;BME280;11142;49.930;8.606;2024-02-15T14:18:30;100157.03;;;19.26;80.94
21956;BME280;11142;49.930;8.606;2024-02-15T14:20:58;100149.88;;;19.97;82.59
21956;BME280;11142;49.930;8.606;2024-02-15T14:23:28;100145.56;;;20.56;80.15
21956;BME280;11142;49.930;8.606;2024-02-15T14:25:59;100138.28;;;21.08;79.81
21956;BME280;11142;49.930;8.606;2024-02-15T14:28:31;100142.13;;;21.46;75.15
21956;BME280;11142;49.930;8.606;2024-02-15T14:31:04;100137.47;;;21.64;74.04
21956;BME280;11142;49.930;8.606;2024-02-15T14:33:52;100136.81;;;21.70;73.08
21956;BME280;11142;49.930;8.606;2024-02-15T14:36:20;100143.59;;;21.32;73.94
21956;BME280;11142;49.930;8.606;2024-02-15T14:38:48;100136.31;;;21.10;73.51
21956;BME280;11142;49.930;8.606;2024-02-15T14:41:16;100122.47;;;20.16;76.35
21956;BME280;11142;49.930;8.606;2024-02-15T14:43:58;100126.44;;;20.54;79.43
21956;BME280;11142;49.930;8.606;2024-02-15T14:46:28;100133.47;;;21.03;79.59
21956;BME280;11142;49.930;8.606;2024-02-15T14:48:56;100116.72;;;21.37;76.62
21956;BME280;11142;49.930;8.606;2024-02-15T14:51:24;100128.09;;;21.45;74.38
21956;BME280;11142;49.930;8.606;2024-02-15T14:53:53;100123.63;;;21.46;74.19
21956;BME280;11142;49.930;8.606;2024-02-15T14:56:21;100118.34;;;21.54;74.66
21956;BME280;11142;49.930;8.606;2024-02-15T14:58:49;100122.66;;;21.47;76.32
21956;BME280;11142;49.930;8.606;2024-02-15T15:01:17;100118.34;;;21.38;76.19